sensor_id;sensor_type;location;lat;lon;timestamp;P1;durP1;ratioP1;P2;durP2;ratioP2
72974;SDS011;61166;54.228;37.632;2023-03-23T00:01:55;9.60;;;4.07;;
72974;SDS011;61166;54.228;37.632;2023-03-23T00:04:21;10.37;;;4.00;;
72974;SDS011;61166;54.228;37.632;2023-03-23T00:06:46;10.07;;;4.53;;
72974;SDS011;61166;54.228;37.632;2023-03-23T00:09:14;10.45;;;4.65;;
72974;SDS011;61166;54.228;37.632;2023-03-23T00:11:40;10.38;;;3.95;;
72974;SDS011;61166;54.228;37.632;2023-03-23T00:14:06;12.35;;;4.25;;
72974;SDS011;61166;54.228;37.632;2023-03-23T00:16:32;7.90;;;3.25;;
72974;SDS011;61166;54.228;37.632;2023-03-23T00:19:03;12.65;;;4.63;;
72974;SDS011;61166;54.228;37.632;2023-03-23T00:21:32;11.13;;;4.10;;
72974;SDS011;61166;54.228;37.632;2023-03-23T00:23:57;8.27;;;3.70;;
72974;SDS011;61166;54.228;37.632;2023-03-23T00:26:22;12.23;;;4.70;;
72974;SDS011;61166;54.228;37.632;2023-03-23T00:28:48;9.53;;;3.83;;
72974;SDS011;61166;54.228;37.632;2023-03-23T00:31:13;10.45;;;4.03;;
72974;SDS011;61166;54.228;37.632;2023-03-23T00:33:39;7.60;;;3.58;;
72974;SDS011;61166;54.228;37.632;2023-03-23T00:36:05;9.07;;;2.90;;
72974;SDS011;61166;54.228;37.632;2023-03-23T00:38:30;12.85;;;4.43;;
72974;SDS011;61166;54.228;37.632;2023-03-23T00:40:56;13.27;;;4.40;;
72974;SDS011;61166;54.228;37.632;2023-03-23T00:43:23;9.15;;;4.28;;
72974;SDS011;61166;54.228;37.632;2023-03-23T00:45:48;13.13;;;4.47;;
72974;SDS011;61166;54.228;37.632;2023-03-23T00:48:14;10.83;;;4.57;;
72974;SDS011;61166;54.228;37.632;2023-03-23T00:50:40;13.38;;;5.13;;
72974;SDS011;61166;54.228;37.632;2023-03-23T00:53:05;14.60;;;6.10;;
72974;SDS011;61166;54.228;37.632;2023-03-23T00:55:31;13.48;;;6.35;;
72974;SDS011;61166;54.228;37.632;2023-03-23T00:57:58;10.00;;;4.55;;
72974;SDS011;61166;54.228;37.632;2023-03-23T01:00:23;13.07;;;5.30;;
72974;SDS011;61166;54.228;37.632;2023-03-23T01:02:48;11.47;;;5.10;;
72974;SDS011;61166;54.228;37.632;2023-03-23T01:05:14;12.88;;;5.78;;
72974;SDS011;61166;54.228;37.632;2023-03-23T01:07:40;12.90;;;5.67;;
72974;SDS011;61166;54.228;37.632;2023-03-23T01:10:05;12.27;;;5.73;;
72974;SDS011;61166;54.228;37.632;2023-03-23T01:12:31;15.27;;;6.35;;
72974;SDS011;61166;54.228;37.632;2023-03-23T01:14:57;14.53;;;6.63;;
72974;SDS011;61166;54.228;37.632;2023-03-23T01:17:22;14.52;;;6.72;;
72974;SDS011;61166;54.228;37.632;2023-03-23T01:19:48;16.67;;;6.13;;
72974;SDS011;61166;54.228;37.632;2023-03-23T01:22:13;11.13;;;5.57;;
72974;SDS011;61166;54.228;37.632;2023-03-23T01:24:38;12.83;;;5.50;;
72974;SDS011;61166;54.228;37.632;2023-03-23T01:27:04;11.77;;;5.43;;
72974;SDS011;61166;54.228;37.632;2023-03-23T01:29:29;13.95;;;5.88;;
72974;SDS011;61166;54.228;37.632;2023-03-23T01:31:55;14.40;;;5.97;;
72974;SDS011;61166;54.228;37.632;2023-03-23T01:34:20;12.67;;;5.83;;
72974;SDS011;61166;54.228;37.632;2023-03-23T01:36:46;14.87;;;6.63;;
72974;SDS011;61166;54.228;37.632;2023-03-23T01:39:11;13.37;;;6.43;;
72974;SDS011;61166;54.228;37.632;2023-03-23T01:41:36;11.50;;;6.03;;
72974;SDS011;61166;54.228;37.632;2023-03-23T01:44:03;10.20;;;5.37;;
72974;SDS011;61166;54.228;37.632;2023-03-23T01:46:30;11.50;;;5.03;;
72974;SDS011;61166;54.228;37.632;2023-03-23T01:48:58;9.13;;;4.38;;
72974;SDS011;61166;54.228;37.632;2023-03-23T01:51:52;12.63;;;4.47;;
72974;SDS011;61166;54.228;37.632;2023-03-23T01:54:21;11.32;;;5.00;;
72974;SDS011;61166;54.228;37.632;2023-03-23T01:56:50;11.35;;;5.07;;
72974;SDS011;61166;54.228;37.632;2023-03-23T01:59:20;10.30;;;4.57;;
72974;SDS011;61166;54.228;37.632;2023-03-23T02:01:48;14.02;;;5.25;;
72974;SDS011;61166;54.228;37.632;2023-03-23T02:04:14;15.20;;;4.83;;
72974;SDS011;61166;54.228;37.632;2023-03-23T02:06:42;9.50;;;4.50;;
72974;SDS011;61166;54.228;37.632;2023-03-23T02:09:08;10.35;;;4.07;;
72974;SDS011;61166;54.228;37.632;2023-03-23T02:11:34;5.20;;;2.37;;
72974;SDS011;61166;54.228;37.632;2023-03-23T02:13:59;8.30;;;4.30;;
72974;SDS011;61166;54.228;37.632;2023-03-23T02:36:58;7.13;;;3.00;;
72974;SDS011;61166;54.228;37.632;2023-03-23T02:42:08;7.82;;;3.63;;
72974;SDS011;61166;54.228;37.632;2023-03-23T02:44:36;8.80;;;3.92;;
72974;SDS011;61166;54.228;37.632;2023-03-23T02:47:04;5.63;;;2.28;;
72974;SDS011;61166;54.228;37.632;2023-03-23T02:49:31;9.75;;;3.67;;
72974;SDS011;61166;54.228;37.632;2023-03-23T02:51:58;8.70;;;3.55;;
72974;SDS011;61166;54.228;37.632;2023-03-23T02:54:24;5.75;;;2.15;;
72974;SDS011;61166;54.228;37.632;2023-03-23T02:56:49;8.85;;;3.80;;
72974;SDS011;61166;54.228;37.632;2023-03-23T02:59:15;11.85;;;4.50;;
72974;SDS011;61166;54.228;37.632;2023-03-23T03:04:10;10.43;;;3.53;;
72974;SDS011;61166;54.228;37.632;2023-03-23T03:06:37;9.95;;;3.03;;
72974;SDS011;61166;54.228;37.632;2023-03-23T03:09:30;13.65;;;5.32;;
72974;SDS011;61166;54.228;37.632;2023-03-23T03:11:52;10.32;;;4.43;;
72974;SDS011;61166;54.228;37.632;2023-03-23T03:14:29;9.97;;;4.23;;
72974;SDS011;61166;54.228;37.632;2023-03-23T03:16:57;9.93;;;3.58;;
72974;SDS011;61166;54.228;37.632;2023-03-23T03:19:26;10.65;;;4.38;;
72974;SDS011;61166;54.228;37.632;2023-03-23T03:21:54;11.10;;;4.25;;
72974;SDS011;61166;54.228;37.632;2023-03-23T03:24:21;10.05;;;3.00;;
72974;SDS011;61166;54.228;37.632;2023-03-23T03:26:47;9.30;;;3.83;;
72974;SDS011;61166;54.228;37.632;2023-03-23T03:29:16;6.32;;;2.33;;
72974;SDS011;61166;54.228;37.632;2023-03-23T03:31:43;7.45;;;3.13;;
72974;SDS011;61166;54.228;37.632;2023-03-23T03:34:11;8.57;;;3.50;;
72974;SDS011;61166;54.228;37.632;2023-03-23T03:36:37;7.65;;;3.15;;
72974;SDS011;61166;54.228;37.632;2023-03-23T03:39:05;10.20;;;3.67;;
72974;SDS011;61166;54.228;37.632;2023-03-23T03:41:33;4.63;;;1.80;;
72974;SDS011;61166;54.228;37.632;2023-03-23T03:43:59;8.70;;;3.08;;
72974;SDS011;61166;54.228;37.632;2023-03-23T03:46:25;9.47;;;3.10;;
72974;SDS011;61166;54.228;37.632;2023-03-23T03:48:50;11.32;;;4.68;;
72974;SDS011;61166;54.228;37.632;2023-03-23T03:51:16;8.45;;;4.03;;
72974;SDS011;61166;54.228;37.632;2023-03-23T03:53:41;11.20;;;4.27;;
72974;SDS011;61166;54.228;37.632;2023-03-23T03:56:07;9.93;;;4.13;;
72974;SDS011;61166;54.228;37.632;2023-03-23T03:58:32;10.17;;;3.23;;
72974;SDS011;61166;54.228;37.632;2023-03-23T04:00:59;8.55;;;3.42;;
72974;SDS011;61166;54.228;37.632;2023-03-23T04:03:25;11.05;;;4.65;;
72974;SDS011;61166;54.228;37.632;2023-03-23T04:05:52;7.20;;;3.03;;
72974;SDS011;61166;54.228;37.632;2023-03-23T04:08:18;6.03;;;3.30;;
72974;SDS011;61166;54.228;37.632;2023-03-23T04:10:44;12.10;;;5.03;;
72974;SDS011;61166;54.228;37.632;2023-03-23T04:13:09;10.45;;;5.28;;
72974;SDS011;61166;54.228;37.632;2023-03-23T04:15:35;11.20;;;4.90;;
72974;SDS011;61166;54.228;37.632;2023-03-23T04:18:01;11.10;;;4.80;;
72974;SDS011;61166;54.228;37.632;2023-03-23T04:20:26;9.30;;;4.50;;
72974;SDS011;61166;54.228;37.632;2023-03-23T04:22:51;10.90;;;5.67;;
72974;SDS011;61166;54.228;37.632;2023-03-23T04:25:18;8.27;;;4.00;;
72974;SDS011;61166;54.228;37.632;2023-03-23T04:27:43;9.27;;;4.88;;
72974;SDS011;61166;54.228;37.632;2023-03-23T04:30:10;12.73;;;5.80;;
72974;SDS011;61166;54.228;37.632;2023-03-23T04:32:36;8.55;;;4.80;;
72974;SDS011;61166;54.228;37.632;2023-03-23T04:35:01;12.30;;;5.87;;
72974;SDS011;61166;54.228;37.632;2023-03-23T04:37:27;11.90;;;5.82;;
72974;SDS011;61166;54.228;37.632;2023-03-23T04:39:52;12.07;;;5.97;;
72974;SDS011;61166;54.228;37.632;2023-03-23T04:42:18;11.13;;;6.03;;
72974;SDS011;61166;54.228;37.632;2023-03-23T04:44:43;13.47;;;6.37;;
72974;SDS011;61166;54.228;37.632;2023-03-23T04:47:09;12.05;;;6.00;;
72974;SDS011;61166;54.228;37.632;2023-03-23T04:49:34;14.83;;;6.57;;
72974;SDS011;61166;54.228;37.632;2023-03-23T04:52:00;13.10;;;7.10;;
72974;SDS011;61166;54.228;37.632;2023-03-23T04:54:25;10.30;;;6.60;;
72974;SDS011;61166;54.228;37.632;2023-03-23T04:56:51;11.93;;;6.30;;
72974;SDS011;61166;54.228;37.632;2023-03-23T04:59:16;12.10;;;5.82;;
72974;SDS011;61166;54.228;37.632;2023-03-23T05:01:41;13.87;;;6.40;;
72974;SDS011;61166;54.228;37.632;2023-03-23T05:04:07;14.13;;;6.30;;
72974;SDS011;61166;54.228;37.632;2023-03-23T05:06:32;12.37;;;5.83;;
72974;SDS011;61166;54.228;37.632;2023-03-23T05:08:57;14.37;;;6.83;;
72974;SDS011;61166;54.228;37.632;2023-03-23T05:11:23;13.65;;;6.38;;
72974;SDS011;61166;54.228;37.632;2023-03-23T05:13:49;16.60;;;7.10;;
72974;SDS011;61166;54.228;37.632;2023-03-23T05:16:14;18.77;;;7.75;;
72974;SDS011;61166;54.228;37.632;2023-03-23T05:18:40;14.80;;;6.90;;
72974;SDS011;61166;54.228;37.632;2023-03-23T05:21:05;14.17;;;7.03;;
72974;SDS011;61166;54.228;37.632;2023-03-23T05:23:31;15.27;;;7.60;;
72974;SDS011;61166;54.228;37.632;2023-03-23T05:25:57;15.57;;;6.55;;
72974;SDS011;61166;54.228;37.632;2023-03-23T05:28:22;15.02;;;7.25;;
72974;SDS011;61166;54.228;37.632;2023-03-23T05:30:48;19.73;;;11.57;;
72974;SDS011;61166;54.228;37.632;2023-03-23T05:33:14;17.80;;;8.48;;
72974;SDS011;61166;54.228;37.632;2023-03-23T05:35:39;16.87;;;7.50;;
72974;SDS011;61166;54.228;37.632;2023-03-23T05:38:05;16.83;;;7.63;;
72974;SDS011;61166;54.228;37.632;2023-03-23T05:40:30;17.00;;;6.87;;
72974;SDS011;61166;54.228;37.632;2023-03-23T05:42:55;15.63;;;8.27;;
72974;SDS011;61166;54.228;37.632;2023-03-23T05:45:21;19.37;;;8.40;;
72974;SDS011;61166;54.228;37.632;2023-03-23T05:47:46;18.42;;;7.97;;
72974;SDS011;61166;54.228;37.632;2023-03-23T05:50:12;21.10;;;8.75;;
72974;SDS011;61166;54.228;37.632;2023-03-23T05:52:38;15.77;;;8.20;;
72974;SDS011;61166;54.228;37.632;2023-03-23T05:55:05;18.23;;;8.25;;
72974;SDS011;61166;54.228;37.632;2023-03-23T05:57:31;17.20;;;8.65;;
72974;SDS011;61166;54.228;37.632;2023-03-23T05:59:57;19.48;;;9.48;;
72974;SDS011;61166;54.228;37.632;2023-03-23T06:02:23;34.20;;;15.57;;
72974;SDS011;61166;54.228;37.632;2023-03-23T06:04:49;22.90;;;10.15;;
72974;SDS011;61166;54.228;37.632;2023-03-23T06:07:15;22.27;;;10.48;;
72974;SDS011;61166;54.228;37.632;2023-03-23T06:09:41;24.30;;;12.43;;
72974;SDS011;61166;54.228;37.632;2023-03-23T06:12:07;25.58;;;11.27;;
72974;SDS011;61166;54.228;37.632;2023-03-23T06:14:33;24.37;;;12.90;;
72974;SDS011;61166;54.228;37.632;2023-03-23T06:16:59;23.85;;;12.30;;
72974;SDS011;61166;54.228;37.632;2023-03-23T06:19:25;24.03;;;12.00;;
72974;SDS011;61166;54.228;37.632;2023-03-23T06:21:50;25.20;;;12.20;;
72974;SDS011;61166;54.228;37.632;2023-03-23T06:24:17;20.03;;;10.23;;
72974;SDS011;61166;54.228;37.632;2023-03-23T06:26:42;25.60;;;12.70;;
72974;SDS011;61166;54.228;37.632;2023-03-23T06:29:08;27.13;;;13.33;;
72974;SDS011;61166;54.228;37.632;2023-03-23T06:31:33;22.57;;;11.70;;
72974;SDS011;61166;54.228;37.632;2023-03-23T06:33:59;25.50;;;12.52;;
72974;SDS011;61166;54.228;37.632;2023-03-23T06:36:24;24.87;;;13.67;;
72974;SDS011;61166;54.228;37.632;2023-03-23T06:38:50;25.00;;;13.63;;
72974;SDS011;61166;54.228;37.632;2023-03-23T06:41:16;22.15;;;12.02;;
72974;SDS011;61166;54.228;37.632;2023-03-23T06:43:41;24.13;;;12.73;;
72974;SDS011;61166;54.228;37.632;2023-03-23T06:46:06;22.47;;;12.73;;
72974;SDS011;61166;54.228;37.632;2023-03-23T06:48:32;21.33;;;12.10;;
72974;SDS011;61166;54.228;37.632;2023-03-23T06:50:57;21.92;;;12.25;;
72974;SDS011;61166;54.228;37.632;2023-03-23T06:53:23;21.53;;;12.97;;
72974;SDS011;61166;54.228;37.632;2023-03-23T06:55:49;24.08;;;14.48;;
72974;SDS011;61166;54.228;37.632;2023-03-23T06:58:14;20.63;;;13.47;;
72974;SDS011;61166;54.228;37.632;2023-03-23T07:00:40;23.57;;;13.70;;
72974;SDS011;61166;54.228;37.632;2023-03-23T07:03:06;24.52;;;14.15;;
72974;SDS011;61166;54.228;37.632;2023-03-23T07:05:33;23.98;;;14.65;;
72974;SDS011;61166;54.228;37.632;2023-03-23T07:07:59;32.10;;;18.80;;
72974;SDS011;61166;54.228;37.632;2023-03-23T07:10:24;28.17;;;15.95;;
72974;SDS011;61166;54.228;37.632;2023-03-23T07:12:50;22.07;;;13.53;;
72974;SDS011;61166;54.228;37.632;2023-03-23T07:15:16;21.38;;;14.20;;
72974;SDS011;61166;54.228;37.632;2023-03-23T07:17:42;22.50;;;14.30;;
72974;SDS011;61166;54.228;37.632;2023-03-23T07:20:07;22.55;;;15.15;;
72974;SDS011;61166;54.228;37.632;2023-03-23T07:22:33;20.90;;;13.97;;
72974;SDS011;61166;54.228;37.632;2023-03-23T07:24:59;25.42;;;17.73;;
72974;SDS011;61166;54.228;37.632;2023-03-23T07:27:24;27.63;;;16.30;;
72974;SDS011;61166;54.228;37.632;2023-03-23T07:29:50;24.73;;;15.30;;
72974;SDS011;61166;54.228;37.632;2023-03-23T07:32:15;24.40;;;15.80;;
72974;SDS011;61166;54.228;37.632;2023-03-23T07:34:41;25.27;;;15.97;;
72974;SDS011;61166;54.228;37.632;2023-03-23T07:37:07;24.50;;;16.00;;
72974;SDS011;61166;54.228;37.632;2023-03-23T07:39:32;26.37;;;15.73;;
72974;SDS011;61166;54.228;37.632;2023-03-23T07:41:58;25.92;;;15.70;;
72974;SDS011;61166;54.228;37.632;2023-03-23T07:44:24;24.90;;;15.80;;
72974;SDS011;61166;54.228;37.632;2023-03-23T07:46:50;26.70;;;15.57;;
72974;SDS011;61166;54.228;37.632;2023-03-23T07:49:15;21.40;;;13.70;;
72974;SDS011;61166;54.228;37.632;2023-03-23T07:51:41;20.88;;;13.95;;
72974;SDS011;61166;54.228;37.632;2023-03-23T07:54:06;21.40;;;14.73;;
72974;SDS011;61166;54.228;37.632;2023-03-23T07:56:32;24.33;;;15.10;;
72974;SDS011;61166;54.228;37.632;2023-03-23T07:58:59;24.05;;;15.07;;
72974;SDS011;61166;54.228;37.632;2023-03-23T08:01:24;25.13;;;15.33;;
72974;SDS011;61166;54.228;37.632;2023-03-23T08:03:50;20.98;;;13.70;;
72974;SDS011;61166;54.228;37.632;2023-03-23T08:06:16;24.83;;;13.95;;
72974;SDS011;61166;54.228;37.632;2023-03-23T08:08:41;23.63;;;13.93;;
72974;SDS011;61166;54.228;37.632;2023-03-23T08:11:07;25.47;;;13.00;;
72974;SDS011;61166;54.228;37.632;2023-03-23T08:13:32;17.17;;;12.25;;
72974;SDS011;61166;54.228;37.632;2023-03-23T08:15:58;19.97;;;11.83;;
72974;SDS011;61166;54.228;37.632;2023-03-23T08:18:24;18.48;;;12.55;;
72974;SDS011;61166;54.228;37.632;2023-03-23T08:20:50;18.17;;;11.60;;
72974;SDS011;61166;54.228;37.632;2023-03-23T08:23:15;16.95;;;11.38;;
72974;SDS011;61166;54.228;37.632;2023-03-23T08:25:41;18.97;;;12.57;;
72974;SDS011;61166;54.228;37.632;2023-03-23T08:28:07;17.98;;;12.23;;
72974;SDS011;61166;54.228;37.632;2023-03-23T08:30:33;17.33;;;11.73;;
72974;SDS011;61166;54.228;37.632;2023-03-23T08:32:59;19.23;;;13.00;;
72974;SDS011;61166;54.228;37.632;2023-03-23T08:35:25;18.77;;;11.63;;
72974;SDS011;61166;54.228;37.632;2023-03-23T08:37:51;14.68;;;11.82;;
72974;SDS011;61166;54.228;37.632;2023-03-23T08:40:17;16.30;;;10.15;;
72974;SDS011;61166;54.228;37.632;2023-03-23T08:42:44;14.57;;;8.73;;
72974;SDS011;61166;54.228;37.632;2023-03-23T08:45:12;15.98;;;9.77;;
72974;SDS011;61166;54.228;37.632;2023-03-23T08:47:39;13.90;;;9.57;;
72974;SDS011;61166;54.228;37.632;2023-03-23T08:50:05;12.97;;;8.73;;
72974;SDS011;61166;54.228;37.632;2023-03-23T08:52:32;20.08;;;10.55;;
72974;SDS011;61166;54.228;37.632;2023-03-23T08:54:58;12.20;;;8.13;;
72974;SDS011;61166;54.228;37.632;2023-03-23T08:57:26;11.48;;;7.68;;
72974;SDS011;61166;54.228;37.632;2023-03-23T08:59:52;9.87;;;7.30;;
72974;SDS011;61166;54.228;37.632;2023-03-23T09:02:17;9.80;;;7.28;;
72974;SDS011;61166;54.228;37.632;2023-03-23T09:04:43;8.40;;;6.90;;
72974;SDS011;61166;54.228;37.632;2023-03-23T09:07:09;7.40;;;6.30;;
72974;SDS011;61166;54.228;37.632;2023-03-23T09:09:35;10.18;;;6.97;;
72974;SDS011;61166;54.228;37.632;2023-03-23T09:12:00;7.73;;;6.33;;
72974;SDS011;61166;54.228;37.632;2023-03-23T09:14:26;10.43;;;7.53;;
72974;SDS011;61166;54.228;37.632;2023-03-23T09:16:52;9.00;;;6.73;;
72974;SDS011;61166;54.228;37.632;2023-03-23T09:19:17;7.83;;;6.40;;
72974;SDS011;61166;54.228;37.632;2023-03-23T09:21:43;7.33;;;5.97;;
72974;SDS011;61166;54.228;37.632;2023-03-23T09:24:08;8.60;;;6.00;;
72974;SDS011;61166;54.228;37.632;2023-03-23T09:26:34;9.53;;;6.87;;
72974;SDS011;61166;54.228;37.632;2023-03-23T09:29:00;7.28;;;6.22;;
72974;SDS011;61166;54.228;37.632;2023-03-23T09:31:25;8.37;;;7.00;;
72974;SDS011;61166;54.228;37.632;2023-03-23T09:33:50;10.80;;;7.13;;
72974;SDS011;61166;54.228;37.632;2023-03-23T09:36:17;9.63;;;6.57;;
72974;SDS011;61166;54.228;37.632;2023-03-23T09:38:43;10.93;;;6.57;;
72974;SDS011;61166;54.228;37.632;2023-03-23T09:49:25;8.93;;;6.37;;
72974;SDS011;61166;54.228;37.632;2023-03-23T09:51:57;9.20;;;6.10;;
72974;SDS011;61166;54.228;37.632;2023-03-23T09:54:35;9.00;;;6.10;;
72974;SDS011;61166;54.228;37.632;2023-03-23T09:57:03;11.32;;;6.00;;
72974;SDS011;61166;54.228;37.632;2023-03-23T09:59:41;10.48;;;6.20;;
72974;SDS011;61166;54.228;37.632;2023-03-23T10:02:15;9.47;;;5.67;;
72974;SDS011;61166;54.228;37.632;2023-03-23T10:04:48;9.63;;;5.70;;
72974;SDS011;61166;54.228;37.632;2023-03-23T10:09:57;8.50;;;5.43;;
72974;SDS011;61166;54.228;37.632;2023-03-23T10:15:28;7.40;;;4.37;;
72974;SDS011;61166;54.228;37.632;2023-03-23T10:18:00;10.18;;;5.20;;
72974;SDS011;61166;54.228;37.632;2023-03-23T10:21:29;9.85;;;4.90;;
72974;SDS011;61166;54.228;37.632;2023-03-23T10:28:54;14.87;;;4.50;;
72974;SDS011;61166;54.228;37.632;2023-03-23T10:31:24;7.47;;;4.47;;
72974;SDS011;61166;54.228;37.632;2023-03-23T10:33:56;7.50;;;3.80;;
72974;SDS011;61166;54.228;37.632;2023-03-23T10:36:31;10.63;;;4.43;;
72974;SDS011;61166;54.228;37.632;2023-03-23T10:41:30;10.88;;;4.40;;
72974;SDS011;61166;54.228;37.632;2023-03-23T10:43:56;8.67;;;4.00;;
72974;SDS011;61166;54.228;37.632;2023-03-23T10:49:21;12.75;;;4.35;;
72974;SDS011;61166;54.228;37.632;2023-03-23T10:52:11;11.00;;;4.20;;
72974;SDS011;61166;54.228;37.632;2023-03-23T10:57:30;7.45;;;4.13;;
72974;SDS011;61166;54.228;37.632;2023-03-23T10:59:58;9.63;;;4.33;;
72974;SDS011;61166;54.228;37.632;2023-03-23T11:02:30;7.95;;;4.20;;
72974;SDS011;61166;54.228;37.632;2023-03-23T11:05:00;6.97;;;4.03;;
72974;SDS011;61166;54.228;37.632;2023-03-23T11:07:29;10.30;;;4.00;;
72974;SDS011;61166;54.228;37.632;2023-03-23T11:09:57;5.82;;;3.22;;
72974;SDS011;61166;54.228;37.632;2023-03-23T11:12:32;7.90;;;3.50;;
72974;SDS011;61166;54.228;37.632;2023-03-23T11:17:57;7.97;;;3.38;;
72974;SDS011;61166;54.228;37.632;2023-03-23T11:20:28;9.45;;;4.15;;
72974;SDS011;61166;54.228;37.632;2023-03-23T11:22:59;10.43;;;3.70;;
72974;SDS011;61166;54.228;37.632;2023-03-23T11:25:24;7.50;;;3.83;;
72974;SDS011;61166;54.228;37.632;2023-03-23T11:27:50;10.53;;;4.20;;
72974;SDS011;61166;54.228;37.632;2023-03-23T11:30:20;9.85;;;3.92;;
72974;SDS011;61166;54.228;37.632;2023-03-23T11:32:50;7.40;;;3.50;;
72974;SDS011;61166;54.228;37.632;2023-03-23T11:35:21;9.55;;;4.40;;
72974;SDS011;61166;54.228;37.632;2023-03-23T11:37:51;6.90;;;3.47;;
72974;SDS011;61166;54.228;37.632;2023-03-23T11:40:22;8.57;;;4.07;;
72974;SDS011;61166;54.228;37.632;2023-03-23T11:42:56;11.32;;;3.47;;
72974;SDS011;61166;54.228;37.632;2023-03-23T11:51:04;7.03;;;3.90;;
72974;SDS011;61166;54.228;37.632;2023-03-23T11:59:05;8.18;;;4.00;;
72974;SDS011;61166;54.228;37.632;2023-03-23T12:16:13;8.23;;;3.92;;
72974;SDS011;61166;54.228;37.632;2023-03-23T12:22:19;7.78;;;4.25;;
72974;SDS011;61166;54.228;37.632;2023-03-23T12:24:49;9.32;;;4.05;;
72974;SDS011;61166;54.228;37.632;2023-03-23T12:35:26;6.20;;;3.60;;
72974;SDS011;61166;54.228;37.632;2023-03-23T12:41:02;11.40;;;4.78;;
72974;SDS011;61166;54.228;37.632;2023-03-23T12:48:59;12.82;;;4.03;;
72974;SDS011;61166;54.228;37.632;2023-03-23T12:54:09;8.27;;;4.40;;
72974;SDS011;61166;54.228;37.632;2023-03-23T12:59:17;9.15;;;3.78;;
72974;SDS011;61166;54.228;37.632;2023-03-23T13:01:50;8.35;;;4.00;;
72974;SDS011;61166;54.228;37.632;2023-03-23T13:04:22;6.93;;;3.30;;
72974;SDS011;61166;54.228;37.632;2023-03-23T13:06:53;9.45;;;4.15;;
72974;SDS011;61166;54.228;37.632;2023-03-23T13:11:49;8.60;;;3.22;;
72974;SDS011;61166;54.228;37.632;2023-03-23T13:14:24;8.27;;;3.40;;
72974;SDS011;61166;54.228;37.632;2023-03-23T13:26:05;9.23;;;3.45;;
72974;SDS011;61166;54.228;37.632;2023-03-23T13:28:17;11.98;;;4.13;;
72974;SDS011;61166;54.228;37.632;2023-03-23T13:30:52;6.85;;;3.70;;
72974;SDS011;61166;54.228;37.632;2023-03-23T13:33:19;9.98;;;3.83;;
72974;SDS011;61166;54.228;37.632;2023-03-23T13:35:45;13.23;;;4.00;;
72974;SDS011;61166;54.228;37.632;2023-03-23T13:38:19;7.70;;;4.13;;
72974;SDS011;61166;54.228;37.632;2023-03-23T13:40:52;7.53;;;3.10;;
72974;SDS011;61166;54.228;37.632;2023-03-23T13:43:31;10.80;;;4.32;;
72974;SDS011;61166;54.228;37.632;2023-03-23T13:48:45;9.23;;;3.95;;
72974;SDS011;61166;54.228;37.632;2023-03-23T13:51:26;11.18;;;4.57;;
72974;SDS011;61166;54.228;37.632;2023-03-23T13:53:52;10.20;;;4.07;;
72974;SDS011;61166;54.228;37.632;2023-03-23T13:56:25;11.40;;;3.72;;
72974;SDS011;61166;54.228;37.632;2023-03-23T13:59:04;7.75;;;4.18;;
72974;SDS011;61166;54.228;37.632;2023-03-23T14:01:36;13.23;;;4.67;;
72974;SDS011;61166;54.228;37.632;2023-03-23T14:04:04;8.40;;;4.10;;
72974;SDS011;61166;54.228;37.632;2023-03-23T14:06:35;9.65;;;4.63;;
72974;SDS011;61166;54.228;37.632;2023-03-23T14:09:13;10.10;;;4.18;;
72974;SDS011;61166;54.228;37.632;2023-03-23T14:11:47;8.85;;;3.90;;
72974;SDS011;61166;54.228;37.632;2023-03-23T14:19:53;9.30;;;4.00;;
72974;SDS011;61166;54.228;37.632;2023-03-23T14:25:30;10.38;;;4.35;;
72974;SDS011;61166;54.228;37.632;2023-03-23T14:27:52;8.90;;;4.10;;
72974;SDS011;61166;54.228;37.632;2023-03-23T14:30:22;9.88;;;4.18;;
72974;SDS011;61166;54.228;37.632;2023-03-23T14:32:49;9.60;;;3.78;;
72974;SDS011;61166;54.228;37.632;2023-03-23T14:35:25;7.15;;;3.67;;
72974;SDS011;61166;54.228;37.632;2023-03-23T14:37:54;9.67;;;3.13;;
72974;SDS011;61166;54.228;37.632;2023-03-23T14:40:20;10.55;;;5.00;;
72974;SDS011;61166;54.228;37.632;2023-03-23T14:42:46;10.82;;;4.15;;
72974;SDS011;61166;54.228;37.632;2023-03-23T14:45:17;14.90;;;4.30;;
72974;SDS011;61166;54.228;37.632;2023-03-23T14:47:45;12.50;;;4.22;;
72974;SDS011;61166;54.228;37.632;2023-03-23T14:51:17;8.73;;;3.83;;
72974;SDS011;61166;54.228;37.632;2023-03-23T14:53:21;11.52;;;3.50;;
72974;SDS011;61166;54.228;37.632;2023-03-23T14:55:55;10.75;;;4.22;;
72974;SDS011;61166;54.228;37.632;2023-03-23T14:58:22;9.30;;;4.15;;
72974;SDS011;61166;54.228;37.632;2023-03-23T15:03:22;10.80;;;4.25;;
72974;SDS011;61166;54.228;37.632;2023-03-23T15:05:50;7.22;;;3.80;;
72974;SDS011;61166;54.228;37.632;2023-03-23T15:08:27;8.73;;;3.83;;
72974;SDS011;61166;54.228;37.632;2023-03-23T15:13:31;10.57;;;4.20;;
72974;SDS011;61166;54.228;37.632;2023-03-23T15:16:06;11.02;;;5.15;;
72974;SDS011;61166;54.228;37.632;2023-03-23T15:18:38;10.43;;;3.97;;
72974;SDS011;61166;54.228;37.632;2023-03-23T15:21:08;9.27;;;3.58;;
72974;SDS011;61166;54.228;37.632;2023-03-23T15:23:40;13.43;;;3.78;;
72974;SDS011;61166;54.228;37.632;2023-03-23T15:26:09;8.47;;;3.33;;
72974;SDS011;61166;54.228;37.632;2023-03-23T15:28:46;9.35;;;4.07;;
72974;SDS011;61166;54.228;37.632;2023-03-23T15:31:11;8.70;;;3.70;;
72974;SDS011;61166;54.228;37.632;2023-03-23T15:33:38;10.93;;;3.50;;
72974;SDS011;61166;54.228;37.632;2023-03-23T15:36:07;13.13;;;4.15;;
72974;SDS011;61166;54.228;37.632;2023-03-23T15:38:34;7.23;;;3.07;;
72974;SDS011;61166;54.228;37.632;2023-03-23T15:41:02;10.05;;;4.40;;
72974;SDS011;61166;54.228;37.632;2023-03-23T15:48:52;11.37;;;4.17;;
72974;SDS011;61166;54.228;37.632;2023-03-23T15:51:21;11.05;;;3.70;;
72974;SDS011;61166;54.228;37.632;2023-03-23T15:53:52;11.97;;;5.07;;
72974;SDS011;61166;54.228;37.632;2023-03-23T15:56:19;8.85;;;4.60;;
72974;SDS011;61166;54.228;37.632;2023-03-23T15:58:44;10.57;;;3.95;;
72974;SDS011;61166;54.228;37.632;2023-03-23T16:01:12;9.50;;;3.03;;
72974;SDS011;61166;54.228;37.632;2023-03-23T16:06:14;9.40;;;4.35;;
72974;SDS011;61166;54.228;37.632;2023-03-23T16:08:51;8.70;;;3.10;;
72974;SDS011;61166;54.228;37.632;2023-03-23T16:11:20;13.30;;;4.43;;
72974;SDS011;61166;54.228;37.632;2023-03-23T16:13:47;8.93;;;4.70;;
72974;SDS011;61166;54.228;37.632;2023-03-23T16:16:48;9.85;;;4.10;;
72974;SDS011;61166;54.228;37.632;2023-03-23T16:19:15;8.32;;;3.10;;
72974;SDS011;61166;54.228;37.632;2023-03-23T16:21:42;7.70;;;3.35;;
72974;SDS011;61166;54.228;37.632;2023-03-23T16:24:09;10.05;;;4.07;;
72974;SDS011;61166;54.228;37.632;2023-03-23T16:26:36;9.13;;;2.47;;
72974;SDS011;61166;54.228;37.632;2023-03-23T16:29:08;6.93;;;3.67;;
72974;SDS011;61166;54.228;37.632;2023-03-23T16:31:53;7.45;;;3.60;;
72974;SDS011;61166;54.228;37.632;2023-03-23T16:34:20;7.43;;;3.78;;
72974;SDS011;61166;54.228;37.632;2023-03-23T16:36:47;10.13;;;4.70;;
72974;SDS011;61166;54.228;37.632;2023-03-23T16:39:13;7.73;;;4.30;;
72974;SDS011;61166;54.228;37.632;2023-03-23T16:41:40;9.52;;;4.40;;
72974;SDS011;61166;54.228;37.632;2023-03-23T16:44:07;6.90;;;3.25;;
72974;SDS011;61166;54.228;37.632;2023-03-23T16:46:33;10.30;;;4.35;;
72974;SDS011;61166;54.228;37.632;2023-03-23T16:49:00;10.65;;;4.60;;
72974;SDS011;61166;54.228;37.632;2023-03-23T16:51:26;11.23;;;4.37;;